createdAt,value
2022-09-27T00:02:16.735Z,30.10
2022-09-27T00:12:22.499Z,34.20
2022-09-27T00:22:29.449Z,39.10
2022-09-27T00:32:35.197Z,42.80
2022-09-27T00:42:41.098Z,38.10
2022-09-27T00:52:55.258Z,39.30
2022-09-27T01:03:02.112Z,38.10
2022-09-27T01:13:20.394Z,39.90
2022-09-27T01:23:56.752Z,48.80
2022-09-27T01:34:08.691Z,39.90
2022-09-27T01:44:22.255Z,36.90
2022-09-27T01:54:33.958Z,34.60
2022-09-27T02:04:42.650Z,44.90
2022-09-27T02:14:54.002Z,28.20
2022-09-27T02:25:03.734Z,29.70
2022-09-27T02:35:14.861Z,29.70
2022-09-27T02:45:21.813Z,24.10
2022-09-27T02:55:38.731Z,30.70
2022-09-27T03:05:48.752Z,24.90
2022-09-27T03:15:57.031Z,24.50
2022-09-27T03:26:05.180Z,24.00
2022-09-27T03:36:12.573Z,24.40
2022-09-27T03:46:18.324Z,22.00
2022-09-27T03:56:23.942Z,27.40
2022-09-27T04:06:29.706Z,24.00
2022-09-27T04:16:35.617Z,39.90
2022-09-27T04:26:41.574Z,40.30
2022-09-27T04:36:47.286Z,31.10
2022-09-27T04:46:52.963Z,26.30
2022-09-27T04:56:58.785Z,20.80
2022-09-27T05:07:05.094Z,21.80
2022-09-27T05:17:10.862Z,24.20
2022-09-27T05:27:20.296Z,23.40
2022-09-27T05:37:26.023Z,28.40
2022-09-27T05:47:31.633Z,22.30
2022-09-27T05:57:37.169Z,20.30
2022-09-27T06:07:42.811Z,27.40
2022-09-27T06:17:48.487Z,27.60
2022-09-27T06:27:54.596Z,22.40
2022-09-27T06:38:03.657Z,19.50
2022-09-27T06:48:12.589Z,17.90
2022-09-27T06:58:36.178Z,19.00
2022-09-27T07:08:41.756Z,19.10
2022-09-27T07:18:48.708Z,14.20
2022-09-27T07:28:54.422Z,13.40
2022-09-27T07:39:01.284Z,15.00
2022-09-27T07:49:07.036Z,16.10
2022-09-27T07:59:12.628Z,20.70
2022-09-27T08:09:18.439Z,18.10
2022-09-27T08:19:24.159Z,18.10
2022-09-27T08:29:29.756Z,17.80
2022-09-27T08:39:35.601Z,22.20
2022-09-27T08:49:46.750Z,23.30
2022-09-27T09:00:07.215Z,25.40
2022-09-27T09:10:47.106Z,23.60
2022-09-27T09:21:04.667Z,24.90
2022-09-27T09:31:22.045Z,27.20
2022-09-27T09:41:33.682Z,27.20
2022-09-27T09:51:45.349Z,24.30
2022-09-27T10:01:51.273Z,23.50
2022-09-27T10:11:57.268Z,22.80
2022-09-27T10:22:13.318Z,20.00
2022-09-27T10:32:27.445Z,18.90
2022-09-27T10:42:38.691Z,16.80
2022-09-27T10:52:44.366Z,16.60
2022-09-27T11:02:55.339Z,13.80
2022-09-27T11:13:14.404Z,15.00
2022-09-27T11:23:43.110Z,14.50
2022-09-27T11:33:59.751Z,12.50
2022-09-27T11:44:35.565Z,11.40
2022-09-27T11:54:55.801Z,10.80
2022-09-27T12:05:17.788Z,9.10
2022-09-27T12:15:27.231Z,8.60
2022-09-27T12:25:37.233Z,9.40
2022-09-27T12:35:50.774Z,7.40
2022-09-27T12:46:07.016Z,8.40
2022-09-27T12:56:36.470Z,7.60
2022-09-27T13:06:59.130Z,7.30
2022-09-27T13:17:05.063Z,6.70
2022-09-27T13:27:38.648Z,7.10
2022-09-27T13:37:55.379Z,7.30
2022-09-27T13:48:02.899Z,6.20
2022-09-27T13:58:22.013Z,6.10
2022-09-27T14:08:33.526Z,5.60
2022-09-27T14:18:50.687Z,7.70
2022-09-27T14:28:56.605Z,6.70
2022-09-27T14:39:02.815Z,17.40
2022-09-27T14:49:23.129Z,10.30
2022-09-27T14:59:33.338Z,11.70
2022-09-27T15:09:40.639Z,11.50
2022-09-27T15:19:59.252Z,12.50
2022-09-27T15:30:05.701Z,12.00
2022-09-27T15:40:55.710Z,17.60
2022-09-27T15:51:03.317Z,17.50
2022-09-27T16:01:09.391Z,14.20
2022-09-27T16:11:17.862Z,4.70
2022-09-27T16:21:23.529Z,4.70
2022-09-27T16:31:29.262Z,5.40
2022-09-27T16:41:35.834Z,5.00
2022-09-27T16:51:58.890Z,4.40
2022-09-27T17:02:05.480Z,4.20
2022-09-27T17:12:12.042Z,1.40
2022-09-27T17:22:18.124Z,1.10
2022-09-27T17:32:24.743Z,1.30
2022-09-27T17:42:30.579Z,1.30
2022-09-27T17:52:36.441Z,4.00
2022-09-27T18:02:42.271Z,4.90
2022-09-27T18:12:47.989Z,6.20
2022-09-27T18:22:54.035Z,14.40
2022-09-27T18:32:59.795Z,10.50
2022-09-27T18:43:05.599Z,12.00
2022-09-27T18:53:11.282Z,9.70
2022-09-27T19:03:17.417Z,10.70
2022-09-27T19:13:27.808Z,6.90
2022-09-27T19:23:34.631Z,21.80
2022-09-27T19:33:40.502Z,13.80
2022-09-27T19:43:51.188Z,19.50
2022-09-27T19:53:56.992Z,14.60
2022-09-27T20:04:03.273Z,7.80
2022-09-27T20:14:09.216Z,10.00
2022-09-27T20:24:14.911Z,9.40
2022-09-27T20:34:20.918Z,11.50
2022-09-27T20:44:26.567Z,12.50
2022-09-27T20:54:33.060Z,11.20
2022-09-27T21:04:38.705Z,13.50
2022-09-27T21:14:44.398Z,12.60
2022-09-27T21:24:50.140Z,10.80
2022-09-27T21:34:56.003Z,9.50
2022-09-27T21:45:01.718Z,8.50
2022-09-27T21:55:09.038Z,6.40
2022-09-27T22:05:14.952Z,5.30
2022-09-27T22:15:22.245Z,5.80
2022-09-27T22:25:29.341Z,6.20
2022-09-27T22:35:35.131Z,10.50
2022-09-27T22:45:40.868Z,8.40
2022-09-27T22:55:57.425Z,6.70
2022-09-27T23:06:07.486Z,7.70
2022-09-27T23:16:14.595Z,8.00
2022-09-27T23:26:24.085Z,7.80
2022-09-27T23:36:30.097Z,7.90
2022-09-27T23:46:37.426Z,6.40
2022-09-27T23:56:43.437Z,6.60
